sensor_id;sensor_type;location;lat;lon;timestamp;noise_LAeq;noise_LA_min;noise_LA_max;noise_LA01;noise_LA95
43168;Laerm;28773;48.804;9.024;2023-02-15T00:00:01;71.42;69.39;73.36;;
43168;Laerm;28773;48.804;9.024;2023-02-15T00:02:26;68.97;67.44;70.45;;
43168;Laerm;28773;48.804;9.024;2023-02-15T00:04:51;67.48;66.32;68.52;;
43168;Laerm;28773;48.804;9.024;2023-02-15T00:07:18;66.29;65.28;67.62;;
43168;Laerm;28773;48.804;9.024;2023-02-15T00:09:47;65.28;64.26;66.40;;
43168;Laerm;28773;48.804;9.024;2023-02-15T00:12:13;64.60;63.42;65.62;;
43168;Laerm;28773;48.804;9.024;2023-02-15T00:14:38;63.95;62.96;65.41;;
43168;Laerm;28773;48.804;9.024;2023-02-15T00:17:03;63.35;62.43;64.35;;
43168;Laerm;28773;48.804;9.024;2023-02-15T00:19:28;63.18;62.23;64.12;;
43168;Laerm;28773;48.804;9.024;2023-02-15T00:21:54;63.31;62.54;64.25;;
43168;Laerm;28773;48.804;9.024;2023-02-15T00:24:19;63.91;62.64;65.32;;
43168;Laerm;28773;48.804;9.024;2023-02-15T00:26:44;65.06;63.74;66.93;;
43168;Laerm;28773;48.804;9.024;2023-02-15T00:29:10;66.54;64.81;68.47;;
43168;Laerm;28773;48.804;9.024;2023-02-15T00:31:36;68.40;66.81;70.20;;
43168;Laerm;28773;48.804;9.024;2023-02-15T00:36:45;69.89;68.77;71.22;;
43168;Laerm;28773;48.804;9.024;2023-02-15T00:39:11;70.34;69.13;72.20;;
43168;Laerm;28773;48.804;9.024;2023-02-15T00:41:36;71.14;69.89;72.43;;
43168;Laerm;28773;48.804;9.024;2023-02-15T00:44:01;70.38;69.36;71.61;;
43168;Laerm;28773;48.804;9.024;2023-02-15T00:46:27;71.13;70.02;72.33;;
43168;Laerm;28773;48.804;9.024;2023-02-15T00:48:52;71.72;70.73;72.96;;
43168;Laerm;28773;48.804;9.024;2023-02-15T00:51:17;72.10;71.24;73.00;;
43168;Laerm;28773;48.804;9.024;2023-02-15T00:53:43;72.25;71.50;73.11;;
43168;Laerm;28773;48.804;9.024;2023-02-15T00:56:09;72.19;71.27;73.13;;
43168;Laerm;28773;48.804;9.024;2023-02-15T00:58:34;71.80;70.81;72.73;;
43168;Laerm;28773;48.804;9.024;2023-02-15T01:01:03;71.40;70.57;72.44;;
43168;Laerm;28773;48.804;9.024;2023-02-15T01:03:29;71.66;70.84;72.74;;
43168;Laerm;28773;48.804;9.024;2023-02-15T01:05:54;71.32;70.39;72.21;;
43168;Laerm;28773;48.804;9.024;2023-02-15T01:08:19;70.96;69.98;72.00;;
43168;Laerm;28773;48.804;9.024;2023-02-15T01:10:44;70.43;69.30;71.41;;
43168;Laerm;28773;48.804;9.024;2023-02-15T01:13:12;69.50;68.21;70.66;;
43168;Laerm;28773;48.804;9.024;2023-02-15T01:15:37;68.02;66.16;69.55;;
43168;Laerm;28773;48.804;9.024;2023-02-15T01:18:03;65.88;64.15;67.44;;
43168;Laerm;28773;48.804;9.024;2023-02-15T01:20:29;64.05;62.62;65.59;;
43168;Laerm;28773;48.804;9.024;2023-02-15T01:22:54;63.19;62.40;64.25;;
43168;Laerm;28773;48.804;9.024;2023-02-15T01:25:21;62.66;61.44;63.92;;
43168;Laerm;28773;48.804;9.024;2023-02-15T01:27:46;61.43;60.14;62.90;;
43168;Laerm;28773;48.804;9.024;2023-02-15T01:30:11;60.73;59.78;62.01;;
43168;Laerm;28773;48.804;9.024;2023-02-15T01:32:37;61.42;60.32;62.67;;
43168;Laerm;28773;48.804;9.024;2023-02-15T01:35:02;62.07;60.93;63.59;;
43168;Laerm;28773;48.804;9.024;2023-02-15T01:37:29;62.92;61.92;64.09;;
43168;Laerm;28773;48.804;9.024;2023-02-15T01:39:55;63.59;62.31;65.14;;
43168;Laerm;28773;48.804;9.024;2023-02-15T01:42:23;64.85;63.56;66.02;;
43168;Laerm;28773;48.804;9.024;2023-02-15T01:44:50;65.24;64.31;66.62;;
43168;Laerm;28773;48.804;9.024;2023-02-15T01:47:18;66.08;65.06;67.32;;
43168;Laerm;28773;48.804;9.024;2023-02-15T01:49:46;66.63;65.50;68.00;;
43168;Laerm;28773;48.804;9.024;2023-02-15T01:52:13;67.14;66.32;68.12;;
43168;Laerm;28773;48.804;9.024;2023-02-15T01:54:39;67.19;66.32;68.25;;
43168;Laerm;28773;48.804;9.024;2023-02-15T01:57:08;67.41;66.52;68.40;;
43168;Laerm;28773;48.804;9.024;2023-02-15T01:59:34;67.44;66.56;68.47;;
43168;Laerm;28773;48.804;9.024;2023-02-15T02:02:01;67.28;66.28;68.46;;
43168;Laerm;28773;48.804;9.024;2023-02-15T02:04:49;66.72;65.68;67.97;;
43168;Laerm;28773;48.804;9.024;2023-02-15T02:07:15;65.78;64.30;67.34;;
43168;Laerm;28773;48.804;9.024;2023-02-15T02:09:41;64.68;63.13;66.15;;
43168;Laerm;28773;48.804;9.024;2023-02-15T02:12:07;63.42;62.21;64.96;;
43168;Laerm;28773;48.804;9.024;2023-02-15T02:14:33;62.45;61.18;64.26;;
43168;Laerm;28773;48.804;9.024;2023-02-15T02:20:15;60.63;59.48;62.08;;
43168;Laerm;28773;48.804;9.024;2023-02-15T02:36:08;56.49;55.35;58.07;;
43168;Laerm;28773;48.804;9.024;2023-02-15T02:38:52;56.45;55.37;58.02;;
43168;Laerm;28773;48.804;9.024;2023-02-15T02:43:52;57.30;55.98;59.05;;
43168;Laerm;28773;48.804;9.024;2023-02-15T02:48:45;57.97;56.74;59.70;;
43168;Laerm;28773;48.804;9.024;2023-02-15T02:51:10;58.21;57.09;59.84;;
43168;Laerm;28773;48.804;9.024;2023-02-15T02:53:36;58.15;56.91;59.78;;
43168;Laerm;28773;48.804;9.024;2023-02-15T02:56:44;57.99;56.87;59.65;;
43168;Laerm;28773;48.804;9.024;2023-02-15T02:58:51;57.90;56.76;59.56;;
43168;Laerm;28773;48.804;9.024;2023-02-15T03:01:20;57.63;56.31;59.44;;
43168;Laerm;28773;48.804;9.024;2023-02-15T03:03:49;57.05;55.53;58.95;;
43168;Laerm;28773;48.804;9.024;2023-02-15T03:06:17;56.35;54.93;58.26;;
43168;Laerm;28773;48.804;9.024;2023-02-15T03:08:45;55.58;54.22;57.56;;
43168;Laerm;28773;48.804;9.024;2023-02-15T03:11:12;54.82;53.53;56.89;;
43168;Laerm;28773;48.804;9.024;2023-02-15T03:13:37;54.35;53.06;56.40;;
43168;Laerm;28773;48.804;9.024;2023-02-15T03:16:03;54.14;53.01;56.14;;
43168;Laerm;28773;48.804;9.024;2023-02-15T03:18:48;54.13;52.94;56.12;;
43168;Laerm;28773;48.804;9.024;2023-02-15T03:21:18;53.40;52.31;55.48;;
43168;Laerm;28773;48.804;9.024;2023-02-15T03:23:48;52.86;51.71;55.09;;
43168;Laerm;28773;48.804;9.024;2023-02-15T03:26:14;52.50;51.32;54.81;;
43168;Laerm;28773;48.804;9.024;2023-02-15T03:28:41;52.17;50.92;54.52;;
43168;Laerm;28773;48.804;9.024;2023-02-15T03:31:08;51.86;50.35;54.26;;
43168;Laerm;28773;48.804;9.024;2023-02-15T03:33:35;51.78;50.36;54.20;;
43168;Laerm;28773;48.804;9.024;2023-02-15T03:36:08;51.55;50.22;54.06;;
43168;Laerm;28773;48.804;9.024;2023-02-15T03:38:42;51.00;49.45;53.56;;
43168;Laerm;28773;48.804;9.024;2023-02-15T03:41:08;50.55;49.03;53.07;;
43168;Laerm;28773;48.804;9.024;2023-02-15T03:46:13;50.33;48.99;52.97;;
43168;Laerm;28773;48.804;9.024;2023-02-15T03:48:43;50.28;49.02;53.08;;
43168;Laerm;28773;48.804;9.024;2023-02-15T03:51:12;50.21;48.49;53.11;;
43168;Laerm;28773;48.804;9.024;2023-02-15T03:53:57;49.69;47.89;53.30;;
43168;Laerm;28773;48.804;9.024;2023-02-15T03:56:23;49.86;47.99;53.69;;
43168;Laerm;28773;48.804;9.024;2023-02-15T03:58:49;50.10;48.17;54.05;;
43168;Laerm;28773;48.804;9.024;2023-02-15T04:01:34;51.69;48.33;55.20;;
43168;Laerm;28773;48.804;9.024;2023-02-15T04:04:19;52.42;50.74;55.38;;
43168;Laerm;28773;48.804;9.024;2023-02-15T04:06:45;52.48;50.96;55.28;;
43168;Laerm;28773;48.804;9.024;2023-02-15T04:09:11;51.94;50.39;54.75;;
43168;Laerm;28773;48.804;9.024;2023-02-15T04:11:55;50.91;49.06;53.75;;
43168;Laerm;28773;48.804;9.024;2023-02-15T04:14:20;50.10;48.62;52.67;;
43168;Laerm;28773;48.804;9.024;2023-02-15T04:17:07;49.84;48.44;52.29;;
43168;Laerm;28773;48.804;9.024;2023-02-15T04:19:33;49.96;48.75;52.32;;
43168;Laerm;28773;48.804;9.024;2023-02-15T04:22:17;49.81;48.78;51.96;;
43168;Laerm;28773;48.804;9.024;2023-02-15T04:25:01;49.10;47.89;51.50;;
43168;Laerm;28773;48.804;9.024;2023-02-15T04:27:39;48.94;48.01;51.24;;
43168;Laerm;28773;48.804;9.024;2023-02-15T04:30:04;48.56;47.55;50.91;;
43168;Laerm;28773;48.804;9.024;2023-02-15T04:32:30;48.70;47.32;51.43;;
43168;Laerm;28773;48.804;9.024;2023-02-15T04:34:55;49.75;48.54;51.76;;
43168;Laerm;28773;48.804;9.024;2023-02-15T04:37:20;49.86;48.87;51.67;;
43168;Laerm;28773;48.804;9.024;2023-02-15T04:39:45;49.68;48.70;51.53;;
43168;Laerm;28773;48.804;9.024;2023-02-15T04:42:10;49.70;48.65;51.67;;
43168;Laerm;28773;48.804;9.024;2023-02-15T04:44:35;50.05;49.00;52.03;;
43168;Laerm;28773;48.804;9.024;2023-02-15T04:47:01;50.16;49.11;52.10;;
43168;Laerm;28773;48.804;9.024;2023-02-15T04:49:26;50.27;49.04;52.33;;
43168;Laerm;28773;48.804;9.024;2023-02-15T04:51:51;50.45;48.99;52.91;;
43168;Laerm;28773;48.804;9.024;2023-02-15T04:54:16;51.20;49.25;54.14;;
43168;Laerm;28773;48.804;9.024;2023-02-15T04:56:42;52.14;50.16;54.97;;
43168;Laerm;28773;48.804;9.024;2023-02-15T04:59:09;52.89;51.00;55.80;;
43168;Laerm;28773;48.804;9.024;2023-02-15T05:01:34;53.71;52.03;56.52;;
43168;Laerm;28773;48.804;9.024;2023-02-15T05:03:59;54.43;52.56;57.10;;
43168;Laerm;28773;48.804;9.024;2023-02-15T05:06:25;54.83;53.06;57.39;;
43168;Laerm;28773;48.804;9.024;2023-02-15T05:08:50;54.90;53.32;57.52;;
43168;Laerm;28773;48.804;9.024;2023-02-15T05:11:15;54.76;53.23;57.36;;
43168;Laerm;28773;48.804;9.024;2023-02-15T05:13:40;54.30;52.85;56.86;;
43168;Laerm;28773;48.804;9.024;2023-02-15T05:16:05;53.60;52.16;56.30;;
43168;Laerm;28773;48.804;9.024;2023-02-15T05:18:30;52.73;51.35;55.50;;
43168;Laerm;28773;48.804;9.024;2023-02-15T05:20:56;52.23;51.10;54.52;;
43168;Laerm;28773;48.804;9.024;2023-02-15T05:23:21;52.13;51.04;54.17;;
43168;Laerm;28773;48.804;9.024;2023-02-15T05:25:47;52.03;50.77;54.24;;
43168;Laerm;28773;48.804;9.024;2023-02-15T05:28:30;51.57;50.05;53.81;;
43168;Laerm;28773;48.804;9.024;2023-02-15T05:31:03;51.50;50.23;53.52;;
43168;Laerm;28773;48.804;9.024;2023-02-15T05:33:29;51.83;50.69;53.67;;
43168;Laerm;28773;48.804;9.024;2023-02-15T05:35:54;52.20;50.93;54.00;;
43168;Laerm;28773;48.804;9.024;2023-02-15T05:38:19;52.33;51.07;54.25;;
43168;Laerm;28773;48.804;9.024;2023-02-15T05:40:44;52.00;50.72;53.92;;
43168;Laerm;28773;48.804;9.024;2023-02-15T05:43:09;51.88;50.56;53.83;;
43168;Laerm;28773;48.804;9.024;2023-02-15T05:45:35;51.60;50.26;53.61;;
43168;Laerm;28773;48.804;9.024;2023-02-15T05:48:00;51.45;50.16;53.42;;
43168;Laerm;28773;48.804;9.024;2023-02-15T05:50:25;51.57;50.22;53.70;;
43168;Laerm;28773;48.804;9.024;2023-02-15T05:52:51;51.75;50.44;53.82;;
43168;Laerm;28773;48.804;9.024;2023-02-15T05:55:16;51.72;50.35;53.85;;
43168;Laerm;28773;48.804;9.024;2023-02-15T05:57:41;51.69;50.30;53.78;;
43168;Laerm;28773;48.804;9.024;2023-02-15T06:00:07;51.61;50.30;53.85;;
43168;Laerm;28773;48.804;9.024;2023-02-15T06:02:34;51.42;49.99;53.59;;
43168;Laerm;28773;48.804;9.024;2023-02-15T06:04:59;51.10;49.85;53.33;;
43168;Laerm;28773;48.804;9.024;2023-02-15T06:07:25;51.03;49.72;53.27;;
43168;Laerm;28773;48.804;9.024;2023-02-15T06:09:50;51.03;49.77;53.33;;
43168;Laerm;28773;48.804;9.024;2023-02-15T06:12:15;51.10;49.81;53.41;;
43168;Laerm;28773;48.804;9.024;2023-02-15T06:14:40;51.27;49.93;53.66;;
43168;Laerm;28773;48.804;9.024;2023-02-15T06:17:05;51.37;50.12;53.73;;
43168;Laerm;28773;48.804;9.024;2023-02-15T06:19:31;51.25;49.95;53.69;;
43168;Laerm;28773;48.804;9.024;2023-02-15T06:21:56;51.26;49.95;53.95;;
43168;Laerm;28773;48.804;9.024;2023-02-15T06:24:21;51.42;50.03;53.85;;
43168;Laerm;28773;48.804;9.024;2023-02-15T06:26:46;51.66;50.33;54.07;;
43168;Laerm;28773;48.804;9.024;2023-02-15T06:29:11;51.73;50.44;54.09;;
43168;Laerm;28773;48.804;9.024;2023-02-15T06:31:37;51.68;50.37;54.02;;
43168;Laerm;28773;48.804;9.024;2023-02-15T06:34:02;51.55;50.30;53.84;;
43168;Laerm;28773;48.804;9.024;2023-02-15T06:36:27;51.52;50.32;53.80;;
43168;Laerm;28773;48.804;9.024;2023-02-15T06:38:53;51.45;50.12;53.84;;
43168;Laerm;28773;48.804;9.024;2023-02-15T06:41:18;51.42;50.20;53.84;;
43168;Laerm;28773;48.804;9.024;2023-02-15T06:43:43;51.52;50.25;53.92;;
43168;Laerm;28773;48.804;9.024;2023-02-15T06:46:09;51.54;50.28;53.92;;
43168;Laerm;28773;48.804;9.024;2023-02-15T06:48:34;51.45;50.15;53.81;;
43168;Laerm;28773;48.804;9.024;2023-02-15T06:50:59;51.55;50.14;53.97;;
43168;Laerm;28773;48.804;9.024;2023-02-15T06:53:24;51.71;50.37;54.07;;
43168;Laerm;28773;48.804;9.024;2023-02-15T06:55:49;51.75;50.49;54.15;;
43168;Laerm;28773;48.804;9.024;2023-02-15T06:58:14;51.81;50.50;54.18;;
43168;Laerm;28773;48.804;9.024;2023-02-15T07:00:40;52.01;50.58;54.32;;
43168;Laerm;28773;48.804;9.024;2023-02-15T07:03:05;52.17;50.69;54.81;;
43168;Laerm;28773;48.804;9.024;2023-02-15T07:05:32;52.46;51.06;54.87;;
43168;Laerm;28773;48.804;9.024;2023-02-15T07:07:58;52.45;51.08;54.87;;
43168;Laerm;28773;48.804;9.024;2023-02-15T07:10:23;52.37;51.03;54.63;;
43168;Laerm;28773;48.804;9.024;2023-02-15T07:12:48;52.13;50.88;54.38;;
43168;Laerm;28773;48.804;9.024;2023-02-15T07:15:14;52.02;50.69;54.20;;
43168;Laerm;28773;48.804;9.024;2023-02-15T07:17:40;52.05;50.64;54.25;;
43168;Laerm;28773;48.804;9.024;2023-02-15T07:20:18;52.21;50.75;54.50;;
43168;Laerm;28773;48.804;9.024;2023-02-15T07:22:44;52.39;50.91;54.72;;
43168;Laerm;28773;48.804;9.024;2023-02-15T07:25:10;52.70;51.26;55.01;;
43168;Laerm;28773;48.804;9.024;2023-02-15T07:27:35;53.16;51.78;55.23;;
43168;Laerm;28773;48.804;9.024;2023-02-15T07:30:01;53.54;52.00;55.77;;
43168;Laerm;28773;48.804;9.024;2023-02-15T07:32:29;53.90;52.45;56.04;;
43168;Laerm;28773;48.804;9.024;2023-02-15T07:34:55;54.39;52.72;56.51;;
43168;Laerm;28773;48.804;9.024;2023-02-15T07:37:20;54.77;53.31;56.74;;
43168;Laerm;28773;48.804;9.024;2023-02-15T07:39:45;54.76;53.39;56.70;;
43168;Laerm;28773;48.804;9.024;2023-02-15T07:42:10;54.62;53.18;56.62;;
43168;Laerm;28773;48.804;9.024;2023-02-15T07:44:35;54.19;52.79;56.28;;
43168;Laerm;28773;48.804;9.024;2023-02-15T07:47:00;53.82;52.51;55.77;;
43168;Laerm;28773;48.804;9.024;2023-02-15T07:49:26;53.41;52.15;55.34;;
43168;Laerm;28773;48.804;9.024;2023-02-15T07:51:51;53.10;51.80;54.98;;
43168;Laerm;28773;48.804;9.024;2023-02-15T07:54:16;52.89;51.68;54.75;;
43168;Laerm;28773;48.804;9.024;2023-02-15T07:56:41;52.81;51.57;54.81;;
43168;Laerm;28773;48.804;9.024;2023-02-15T07:59:06;52.91;51.69;54.82;;
43168;Laerm;28773;48.804;9.024;2023-02-15T08:01:34;52.97;51.68;54.92;;
43168;Laerm;28773;48.804;9.024;2023-02-15T08:04:00;53.04;51.84;55.04;;
43168;Laerm;28773;48.804;9.024;2023-02-15T08:06:26;53.11;52.00;55.05;;
43168;Laerm;28773;48.804;9.024;2023-02-15T08:08:52;52.98;51.77;54.97;;
43168;Laerm;28773;48.804;9.024;2023-02-15T08:11:21;52.86;51.65;54.77;;
43168;Laerm;28773;48.804;9.024;2023-02-15T08:13:51;53.01;51.80;55.01;;
43168;Laerm;28773;48.804;9.024;2023-02-15T08:16:32;53.14;51.95;55.12;;
43168;Laerm;28773;48.804;9.024;2023-02-15T08:18:59;53.32;52.08;55.51;;
43168;Laerm;28773;48.804;9.024;2023-02-15T08:21:26;53.51;52.29;55.68;;
43168;Laerm;28773;48.804;9.024;2023-02-15T08:23:51;54.01;52.56;56.13;;
43168;Laerm;28773;48.804;9.024;2023-02-15T08:26:16;54.42;52.89;56.77;;
43168;Laerm;28773;48.804;9.024;2023-02-15T08:28:42;54.82;53.33;57.05;;
43168;Laerm;28773;48.804;9.024;2023-02-15T08:31:09;55.46;53.86;57.51;;
43168;Laerm;28773;48.804;9.024;2023-02-15T08:33:35;55.87;54.22;57.92;;
43168;Laerm;28773;48.804;9.024;2023-02-15T08:36:04;56.20;54.59;58.29;;
43168;Laerm;28773;48.804;9.024;2023-02-15T08:38:30;56.40;54.86;58.45;;
43168;Laerm;28773;48.804;9.024;2023-02-15T08:40:55;56.55;55.07;58.48;;
43168;Laerm;28773;48.804;9.024;2023-02-15T08:43:20;56.71;55.27;58.63;;
43168;Laerm;28773;48.804;9.024;2023-02-15T08:45:46;56.81;55.30;58.78;;
43168;Laerm;28773;48.804;9.024;2023-02-15T08:48:11;56.98;55.45;58.93;;
43168;Laerm;28773;48.804;9.024;2023-02-15T08:50:36;57.35;55.84;59.28;;
43168;Laerm;28773;48.804;9.024;2023-02-15T08:53:01;57.48;56.07;59.36;;
43168;Laerm;28773;48.804;9.024;2023-02-15T08:55:26;57.77;56.19;60.01;;
43168;Laerm;28773;48.804;9.024;2023-02-15T08:57:52;58.43;57.11;60.39;;
43168;Laerm;28773;48.804;9.024;2023-02-15T09:00:20;58.78;57.40;60.65;;
43168;Laerm;28773;48.804;9.024;2023-02-15T09:02:47;59.15;57.78;61.01;;
43168;Laerm;28773;48.804;9.024;2023-02-15T09:05:12;59.48;58.09;61.37;;
43168;Laerm;28773;48.804;9.024;2023-02-15T09:07:37;59.86;58.45;61.76;;
43168;Laerm;28773;48.804;9.024;2023-02-15T09:10:02;60.70;59.19;62.64;;
43168;Laerm;28773;48.804;9.024;2023-02-15T09:12:28;61.03;59.94;62.94;;
43168;Laerm;28773;48.804;9.024;2023-02-15T09:14:53;61.46;60.39;63.23;;
43168;Laerm;28773;48.804;9.024;2023-02-15T09:17:18;62.11;60.63;63.99;;
43168;Laerm;28773;48.804;9.024;2023-02-15T09:19:43;62.53;61.51;64.16;;
43168;Laerm;28773;48.804;9.024;2023-02-15T09:22:08;62.79;61.75;64.45;;
43168;Laerm;28773;48.804;9.024;2023-02-15T09:24:34;63.34;62.05;65.24;;
43168;Laerm;28773;48.804;9.024;2023-02-15T09:26:59;64.02;62.79;65.88;;
43168;Laerm;28773;48.804;9.024;2023-02-15T09:29:24;64.86;63.55;66.56;;
43168;Laerm;28773;48.804;9.024;2023-02-15T09:31:49;65.43;64.33;67.05;;
43168;Laerm;28773;48.804;9.024;2023-02-15T09:34:16;65.87;64.80;67.37;;
43168;Laerm;28773;48.804;9.024;2023-02-15T09:36:42;66.20;65.18;67.70;;
43168;Laerm;28773;48.804;9.024;2023-02-15T09:39:14;66.55;65.47;68.14;;
43168;Laerm;28773;48.804;9.024;2023-02-15T09:55:18;68.49;67.49;70.00;;
43168;Laerm;28773;48.804;9.024;2023-02-15T09:57:56;68.80;67.79;70.37;;
43168;Laerm;28773;48.804;9.024;2023-02-15T10:13:26;72.23;71.21;73.70;;
43168;Laerm;28773;48.804;9.024;2023-02-15T10:18:29;73.64;72.55;75.08;;
43168;Laerm;28773;48.804;9.024;2023-02-15T10:21:02;74.17;73.27;75.41;;
43168;Laerm;28773;48.804;9.024;2023-02-15T10:26:04;74.76;73.91;75.95;;
43168;Laerm;28773;48.804;9.024;2023-02-15T10:28:36;75.08;74.06;76.33;;
43168;Laerm;28773;48.804;9.024;2023-02-15T10:31:07;75.63;74.53;77.05;;
43168;Laerm;28773;48.804;9.024;2023-02-15T10:33:41;76.36;75.22;77.57;;
43168;Laerm;28773;48.804;9.024;2023-02-15T10:38:42;77.43;76.40;78.54;;
43168;Laerm;28773;48.804;9.024;2023-02-15T10:52:14;78.95;78.11;79.87;;
43168;Laerm;28773;48.804;9.024;2023-02-15T10:57:03;79.02;78.19;79.94;;
43168;Laerm;28773;48.804;9.024;2023-02-15T11:07:16;78.08;76.86;79.41;;
43168;Laerm;28773;48.804;9.024;2023-02-15T11:09:44;77.32;76.23;78.72;;
43168;Laerm;28773;48.804;9.024;2023-02-15T11:12:11;76.72;75.48;78.11;;
43168;Laerm;28773;48.804;9.024;2023-02-15T11:14:47;76.18;75.08;77.47;;
43168;Laerm;28773;48.804;9.024;2023-02-15T11:17:15;76.06;75.07;77.33;;
43168;Laerm;28773;48.804;9.024;2023-02-15T11:19:45;76.00;75.02;77.26;;
43168;Laerm;28773;48.804;9.024;2023-02-15T11:22:14;75.86;74.84;77.17;;
43168;Laerm;28773;48.804;9.024;2023-02-15T11:24:42;75.67;74.70;77.00;;
43168;Laerm;28773;48.804;9.024;2023-02-15T11:27:21;75.53;74.55;76.95;;
43168;Laerm;28773;48.804;9.024;2023-02-15T11:34:51;75.38;74.28;77.04;;
43168;Laerm;28773;48.804;9.024;2023-02-15T11:37:19;75.60;74.30;88.19;;
43168;Laerm;28773;48.804;9.024;2023-02-15T11:39:48;75.08;73.87;76.66;;
43168;Laerm;28773;48.804;9.024;2023-02-15T11:42:17;74.57;73.50;76.12;;
43168;Laerm;28773;48.804;9.024;2023-02-15T11:45:07;74.16;73.04;75.77;;
43168;Laerm;28773;48.804;9.024;2023-02-15T11:47:30;73.92;72.75;75.58;;
43168;Laerm;28773;48.804;9.024;2023-02-15T11:49:56;73.45;72.39;75.31;;
43168;Laerm;28773;48.804;9.024;2023-02-15T11:52:21;72.89;71.45;75.02;;
43168;Laerm;28773;48.804;9.024;2023-02-15T11:54:47;71.99;70.59;74.13;;
43168;Laerm;28773;48.804;9.024;2023-02-15T11:59:40;71.06;69.62;73.22;;
43168;Laerm;28773;48.804;9.024;2023-02-15T12:02:18;70.70;69.01;73.01;;
43168;Laerm;28773;48.804;9.024;2023-02-15T12:04:47;70.27;68.65;72.76;;
43168;Laerm;28773;48.804;9.024;2023-02-15T12:07:18;69.57;67.98;72.36;;
43168;Laerm;28773;48.804;9.024;2023-02-15T12:12:32;69.35;67.88;71.77;;
43168;Laerm;28773;48.804;9.024;2023-02-15T12:14:58;69.07;67.34;71.73;;
43168;Laerm;28773;48.804;9.024;2023-02-15T12:17:25;68.82;66.78;71.57;;
43168;Laerm;28773;48.804;9.024;2023-02-15T12:19:52;68.41;66.31;71.24;;
43168;Laerm;28773;48.804;9.024;2023-02-15T12:22:22;67.59;65.18;70.67;;
43168;Laerm;28773;48.804;9.024;2023-02-15T12:24:48;66.24;63.40;69.78;;
43168;Laerm;28773;48.804;9.024;2023-02-15T12:29:42;64.63;62.18;68.64;;
43168;Laerm;28773;48.804;9.024;2023-02-15T12:32:11;64.18;61.66;68.25;;
43168;Laerm;28773;48.804;9.024;2023-02-15T12:34:41;63.66;61.06;67.96;;
43168;Laerm;28773;48.804;9.024;2023-02-15T12:37:09;62.98;60.06;67.73;;
43168;Laerm;28773;48.804;9.024;2023-02-15T12:39:35;62.24;59.44;67.10;;
43168;Laerm;28773;48.804;9.024;2023-02-15T12:42:02;62.05;59.33;67.10;;
43168;Laerm;28773;48.804;9.024;2023-02-15T12:44:30;61.96;59.11;67.11;;
43168;Laerm;28773;48.804;9.024;2023-02-15T12:46:56;61.93;58.82;81.83;;
43168;Laerm;28773;48.804;9.024;2023-02-15T12:49:22;61.78;58.91;67.10;;
43168;Laerm;28773;48.804;9.024;2023-02-15T12:51:54;61.71;58.88;67.02;;
43168;Laerm;28773;48.804;9.024;2023-02-15T12:57:01;61.51;58.56;66.93;;
43168;Laerm;28773;48.804;9.024;2023-02-15T12:59:37;60.97;57.03;66.75;;
43168;Laerm;28773;48.804;9.024;2023-02-15T13:02:15;59.20;54.30;65.50;;
43168;Laerm;28773;48.804;9.024;2023-02-15T13:04:47;58.56;53.14;66.01;;
43168;Laerm;28773;48.804;9.024;2023-02-15T13:07:13;58.39;52.66;65.69;;
43168;Laerm;28773;48.804;9.024;2023-02-15T13:09:39;58.38;52.18;65.57;;
43168;Laerm;28773;48.804;9.024;2023-02-15T13:12:18;58.38;52.43;65.59;;
43168;Laerm;28773;48.804;9.024;2023-02-15T13:14:45;58.37;52.63;65.61;;
43168;Laerm;28773;48.804;9.024;2023-02-15T13:17:11;58.40;52.85;65.49;;
43168;Laerm;28773;48.804;9.024;2023-02-15T13:19:39;58.38;53.52;65.55;;
43168;Laerm;28773;48.804;9.024;2023-02-15T13:22:06;58.34;53.29;65.50;;
43168;Laerm;28773;48.804;9.024;2023-02-15T13:24:34;58.32;54.10;65.50;;
43168;Laerm;28773;48.804;9.024;2023-02-15T13:27:00;58.38;54.29;65.22;;
43168;Laerm;28773;48.804;9.024;2023-02-15T13:29:27;58.58;54.69;65.56;;
43168;Laerm;28773;48.804;9.024;2023-02-15T13:31:53;58.85;55.16;64.80;;
43168;Laerm;28773;48.804;9.024;2023-02-15T13:34:22;59.16;55.56;64.88;;
43168;Laerm;28773;48.804;9.024;2023-02-15T13:37:10;59.39;55.96;64.86;;
43168;Laerm;28773;48.804;9.024;2023-02-15T13:39:40;59.76;56.51;65.43;;
43168;Laerm;28773;48.804;9.024;2023-02-15T13:47:17;61.72;58.69;66.17;;
43168;Laerm;28773;48.804;9.024;2023-02-15T13:52:24;63.81;61.58;66.80;;
43168;Laerm;28773;48.804;9.024;2023-02-15T14:07:20;69.34;68.33;70.39;;
43168;Laerm;28773;48.804;9.024;2023-02-15T14:20:19;67.46;66.68;68.40;;
43168;Laerm;28773;48.804;9.024;2023-02-15T14:22:53;66.31;65.61;67.25;;
43168;Laerm;28773;48.804;9.024;2023-02-15T14:30:29;62.69;61.55;63.72;;
43168;Laerm;28773;48.804;9.024;2023-02-15T14:32:56;61.47;60.80;62.16;;
43168;Laerm;28773;48.804;9.024;2023-02-15T14:35:26;60.30;59.35;61.33;;
43168;Laerm;28773;48.804;9.024;2023-02-15T14:37:58;59.25;58.58;59.98;;
43168;Laerm;28773;48.804;9.024;2023-02-15T14:40:47;58.61;57.93;59.24;;
43168;Laerm;28773;48.804;9.024;2023-02-15T14:46:19;56.98;56.25;57.73;;
43168;Laerm;28773;48.804;9.024;2023-02-15T14:48:54;56.43;55.82;57.02;;
43168;Laerm;28773;48.804;9.024;2023-02-15T14:54:06;55.39;54.37;56.29;;
43168;Laerm;28773;48.804;9.024;2023-02-15T14:56:31;54.21;53.16;55.19;;
43168;Laerm;28773;48.804;9.024;2023-02-15T14:58:58;53.34;52.75;54.02;;
43168;Laerm;28773;48.804;9.024;2023-02-15T15:01:27;52.95;52.14;53.64;;
43168;Laerm;28773;48.804;9.024;2023-02-15T15:03:54;52.18;51.39;53.01;;
43168;Laerm;28773;48.804;9.024;2023-02-15T15:06:31;51.89;51.23;52.67;;
43168;Laerm;28773;48.804;9.024;2023-02-15T15:09:00;51.65;50.43;52.71;;
43168;Laerm;28773;48.804;9.024;2023-02-15T15:13:58;50.58;49.96;51.16;;
43168;Laerm;28773;48.804;9.024;2023-02-15T15:16:25;50.20;49.46;51.01;;
43168;Laerm;28773;48.804;9.024;2023-02-15T15:18:50;49.72;48.81;50.57;;
43168;Laerm;28773;48.804;9.024;2023-02-15T15:22:02;48.92;47.95;49.87;;
43168;Laerm;28773;48.804;9.024;2023-02-15T15:24:02;48.23;47.52;49.02;;
43168;Laerm;28773;48.804;9.024;2023-02-15T15:26:28;48.06;47.09;48.88;;
43168;Laerm;28773;48.804;9.024;2023-02-15T15:28:54;47.45;46.71;48.15;;
43168;Laerm;28773;48.804;9.024;2023-02-15T15:34:24;46.74;45.84;47.63;;
43168;Laerm;28773;48.804;9.024;2023-02-15T15:45:16;50.46;47.73;51.82;;
43168;Laerm;28773;48.804;9.024;2023-02-15T15:50:17;46.64;45.76;47.48;;
43168;Laerm;28773;48.804;9.024;2023-02-15T15:52:44;45.77;44.29;47.38;;
43168;Laerm;28773;48.804;9.024;2023-02-15T15:55:15;44.56;43.62;45.41;;
43168;Laerm;28773;48.804;9.024;2023-02-15T15:57:42;44.03;42.86;45.16;;
43168;Laerm;28773;48.804;9.024;2023-02-15T16:00:54;44.22;42.85;45.15;;
43168;Laerm;28773;48.804;9.024;2023-02-15T16:02:53;44.35;43.31;45.39;;
43168;Laerm;28773;48.804;9.024;2023-02-15T16:05:20;43.84;42.81;45.08;;
43168;Laerm;28773;48.804;9.024;2023-02-15T16:07:45;43.60;42.77;44.52;;
43168;Laerm;28773;48.804;9.024;2023-02-15T16:10:24;43.60;42.72;44.64;;
43168;Laerm;28773;48.804;9.024;2023-02-15T16:12:49;43.28;42.36;44.23;;
43168;Laerm;28773;48.804;9.024;2023-02-15T16:15:17;42.90;41.86;43.91;;
43168;Laerm;28773;48.804;9.024;2023-02-15T16:17:45;42.19;41.26;43.34;;
43168;Laerm;28773;48.804;9.024;2023-02-15T16:22:37;42.25;41.22;43.51;;
43168;Laerm;28773;48.804;9.024;2023-02-15T16:27:43;45.14;43.98;46.01;;